Time;durP1;ratioP1;P1;durP2;ratioP2;P2;SDS_P1;SDS_P2;PMS_P1;PMS_P2;Temp;Humidity;BMP_temperature;BMP_pressure;BME280_temperature;BME280_humidity;BME280_pressure;Samples;Min_cycle;Max_cycle;Signal;HPM_P1;HPM_P2
2023/09/25 00:00:57;;;;;;;5.72;2.65;;;12.90;82.10;;;;;;5032961;28;19909;-47
2023/09/25 00:03:28;;;;;;;4.45;3.00;;;12.90;82.10;;;;;;5040279;28;20131;-52
2023/09/25 00:05:54;;;;;;;6.72;2.38;;;12.90;82.10;;;;;;5052310;28;20316;-46
2023/09/25 00:08:21;;;;;;;4.78;3.55;;;12.80;82.20;;;;;;5052616;28;20013;-47
2023/09/25 00:10:50;;;;;;;3.88;2.45;;;12.90;82.20;;;;;;5051031;28;20060;-48
2023/09/25 00:13:19;;;;;;;4.75;2.85;;;12.90;82.30;;;;;;5052630;28;20103;-51
2023/09/25 00:15:47;;;;;;;5.50;3.85;;;12.80;82.20;;;;;;5034758;28;20071;-47
2023/09/25 00:18:16;;;;;;;5.03;3.10;;;12.80;82.20;;;;;;5034448;28;20032;-46
2023/09/25 00:20:43;;;;;;;4.53;2.60;;;12.70;82.10;;;;;;5052644;28;20043;-49
2023/09/25 00:23:11;;;;;;;4.68;2.45;;;12.80;82.40;;;;;;5052536;28;20538;-51
2023/09/25 00:25:40;;;;;;;5.45;3.10;;;12.80;82.50;;;;;;5042958;28;20018;-46
2023/09/25 00:28:09;;;;;;;6.40;2.72;;;12.70;82.40;;;;;;5032859;28;20029;-47
2023/09/25 00:30:45;;;;;;;5.25;2.42;;;12.70;82.40;;;;;;5032614;28;20043;-47
2023/09/25 00:33:17;;;;;;;6.95;2.90;;;12.70;82.50;;;;;;5033360;28;20028;-46
2023/09/25 00:35:44;;;;;;;4.47;2.72;;;12.70;82.30;;;;;;5032399;28;20041;-52
2023/09/25 00:38:14;;;;;;;5.55;2.80;;;12.70;82.50;;;;;;5032203;28;20033;-46
2023/09/25 00:40:42;;;;;;;6.60;2.80;;;12.70;82.50;;;;;;5033975;28;20045;-47
2023/09/25 00:43:20;;;;;;;4.03;2.42;;;12.70;82.50;;;;;;5015016;28;20714;-46
2023/09/25 00:45:47;;;;;;;4.07;2.50;;;12.60;82.60;;;;;;5032181;28;20116;-47
2023/09/25 00:48:42;;;;;;;5.60;2.88;;;12.60;82.70;;;;;;5020479;28;20037;-51
2023/09/25 00:51:09;;;;;;;6.38;2.40;;;12.60;82.70;;;;;;5052098;28;20029;-51
2023/09/25 00:53:40;;;;;;;5.63;2.80;;;12.60;82.70;;;;;;5052313;28;20115;-46
2023/09/25 00:56:09;;;;;;;3.90;2.58;;;12.60;82.90;;;;;;5052532;28;20096;-49
2023/09/25 00:58:36;;;;;;;4.00;2.40;;;12.60;82.90;;;;;;5037051;28;20057;-50
2023/09/25 01:01:02;;;;;;;3.95;2.40;;;12.60;82.90;;;;;;5026140;28;20037;-48
2023/09/25 01:03:31;;;;;;;5.82;3.00;;;12.60;82.90;;;;;;5051905;28;20051;-52
2023/09/25 01:06:04;;;;;;;4.77;2.50;;;12.50;83.20;;;;;;5037574;28;20149;-48
2023/09/25 01:08:32;;;;;;;6.25;2.90;;;12.50;83.20;;;;;;5032314;28;20379;-50
2023/09/25 01:11:00;;;;;;;4.63;3.00;;;12.50;83.20;;;;;;5040765;28;20438;-49
2023/09/25 01:13:28;;;;;;;6.47;2.88;;;12.50;83.10;;;;;;5051667;28;20041;-48
2023/09/25 01:16:06;;;;;;;5.90;3.15;;;12.50;83.30;;;;;;5043632;28;20109;-48
2023/09/25 01:18:35;;;;;;;6.30;2.80;;;12.50;83.30;;;;;;5032249;28;20026;-51
2023/09/25 01:21:03;;;;;;;6.80;2.70;;;12.50;83.30;;;;;;5040535;28;20057;-47
2023/09/25 01:23:30;;;;;;;4.38;2.40;;;12.50;83.40;;;;;;5054785;28;20347;-50
2023/09/25 01:25:57;;;;;;;4.75;2.65;;;12.40;83.50;;;;;;5050420;28;20057;-47
2023/09/25 01:28:24;;;;;;;3.65;2.42;;;12.50;83.50;;;;;;5035617;28;20111;-46
2023/09/25 01:30:53;;;;;;;5.10;2.38;;;12.50;83.60;;;;;;5035642;28;20351;-47
2023/09/25 01:33:19;;;;;;;3.83;2.30;;;12.40;83.50;;;;;;5048554;28;20118;-50
2023/09/25 01:35:46;;;;;;;4.97;2.53;;;12.40;83.70;;;;;;5049921;28;20064;-48
2023/09/25 01:38:14;;;;;;;5.53;3.08;;;12.40;83.70;;;;;;5035608;28;20045;-49
2023/09/25 01:40:43;;;;;;;7.78;3.65;;;12.30;83.70;;;;;;5036894;28;20474;-47
2023/09/25 01:43:10;;;;;;;4.80;3.00;;;12.30;83.90;;;;;;5055022;28;20036;-48
2023/09/25 01:45:35;;;;;;;5.07;2.38;;;12.30;84.00;;;;;;5055099;28;20031;-51
2023/09/25 01:48:03;;;;;;;6.72;2.83;;;12.30;84.20;;;;;;5055215;28;20021;-48
2023/09/25 01:50:30;;;;;;;3.30;2.50;;;12.30;84.00;;;;;;5053134;28;20043;-48
2023/09/25 01:52:58;;;;;;;4.80;2.60;;;12.30;84.20;;;;;;5055090;28;20029;-52
2023/09/25 01:55:36;;;;;;;6.32;2.67;;;12.20;84.20;;;;;;5037507;28;20025;-49
2023/09/25 01:58:06;;;;;;;5.13;3.58;;;12.30;84.20;;;;;;5054453;28;20032;-47
2023/09/25 02:00:33;;;;;;;6.07;3.50;;;12.20;84.20;;;;;;5046480;28;20513;-50
2023/09/25 02:03:01;;;;;;;4.97;3.03;;;12.20;84.30;;;;;;5035405;28;20030;-48
2023/09/25 02:05:26;;;;;;;5.68;3.25;;;12.20;84.30;;;;;;5033998;28;20029;-48
2023/09/25 02:07:57;;;;;;;5.72;3.40;;;12.30;84.30;;;;;;5031368;28;20036;-47
2023/09/25 02:10:24;;;;;;;4.05;2.85;;;12.30;84.00;;;;;;5034874;28;20104;-47
2023/09/25 02:12:51;;;;;;;6.95;3.40;;;12.30;84.10;;;;;;5028892;28;20026;-50
2023/09/25 02:15:18;;;;;;;6.13;4.10;;;12.30;84.00;;;;;;5047155;28;20324;-48
2023/09/25 02:17:44;;;;;;;4.80;3.17;;;12.30;84.00;;;;;;5048099;28;20030;-50
2023/09/25 02:20:20;;;;;;;5.30;3.25;;;12.30;84.10;;;;;;5017270;28;20483;-47
2023/09/25 02:22:47;;;;;;;5.95;3.88;;;12.30;84.00;;;;;;5034485;28;20029;-50
2023/09/25 02:25:21;;;;;;;7.60;3.13;;;12.30;84.00;;;;;;5022041;28;20677;-47
2023/09/25 02:27:48;;;;;;;5.80;2.70;;;12.30;84.00;;;;;;5043622;28;20032;-49
2023/09/25 02:30:15;;;;;;;4.30;2.53;;;12.30;83.90;;;;;;5053880;28;20056;-51
2023/09/25 02:32:42;;;;;;;5.35;2.58;;;12.30;83.90;;;;;;5049165;28;20529;-47
2023/09/25 02:35:13;;;;;;;4.90;2.80;;;12.30;83.80;;;;;;5032802;28;20029;-46
2023/09/25 02:37:40;;;;;;;5.15;3.00;;;12.30;84.00;;;;;;5053860;28;20029;-47
2023/09/25 02:40:13;;;;;;;5.10;2.90;;;12.30;83.90;;;;;;5061507;28;20110;-48
2023/09/25 02:42:41;;;;;;;5.00;2.75;;;12.30;83.80;;;;;;5054710;28;20521;-46
2023/09/25 02:45:10;;;;;;;4.07;2.72;;;12.30;83.90;;;;;;5052635;28;20392;-51
2023/09/25 02:47:39;;;;;;;5.57;2.47;;;12.30;84.00;;;;;;5060321;28;20044;-47
2023/09/25 02:50:08;;;;;;;5.28;3.03;;;12.30;84.20;;;;;;5054039;28;20036;-49
2023/09/25 02:52:36;;;;;;;4.93;3.03;;;12.20;84.10;;;;;;5045399;28;20029;-46
2023/09/25 02:55:06;;;;;;;3.97;2.80;;;12.20;84.10;;;;;;5068100;28;20025;-47
2023/09/25 02:57:31;;;;;;;6.00;3.20;;;12.20;84.10;;;;;;5060683;28;20337;-48
2023/09/25 02:59:58;;;;;;;4.72;3.30;;;12.20;84.40;;;;;;5056000;28;20039;-48
2023/09/25 03:02:25;;;;;;;5.13;3.30;;;12.20;84.30;;;;;;5073083;28;20097;-49
2023/09/25 03:04:52;;;;;;;6.65;3.70;;;12.20;84.50;;;;;;5067044;28;20067;-49
2023/09/25 03:07:19;;;;;;;4.60;2.95;;;12.20;84.40;;;;;;5071221;28;20075;-47
2023/09/25 03:09:48;;;;;;;4.63;2.67;;;12.20;84.50;;;;;;5053831;28;20025;-51
2023/09/25 03:12:14;;;;;;;4.60;3.17;;;12.10;84.60;;;;;;5054871;28;20468;-51
2023/09/25 03:14:42;;;;;;;4.68;3.13;;;12.10;84.60;;;;;;5061020;28;20037;-49
2023/09/25 03:17:08;;;;;;;6.70;3.20;;;12.10;84.60;;;;;;5053568;28;20029;-48
2023/09/25 03:19:35;;;;;;;4.28;2.80;;;12.10;84.50;;;;;;5063794;28;20449;-48
2023/09/25 03:22:04;;;;;;;5.75;3.15;;;12.10;84.60;;;;;;5035661;28;20021;-47
2023/09/25 03:24:32;;;;;;;6.32;3.47;;;12.10;84.70;;;;;;5053970;28;20388;-50
2023/09/25 03:26:59;;;;;;;4.03;2.90;;;12.10;84.80;;;;;;5053841;28;20029;-47
2023/09/25 03:29:24;;;;;;;9.00;2.72;;;12.10;84.80;;;;;;5071188;28;20033;-52
2023/09/25 03:31:51;;;;;;;6.22;3.15;;;12.10;84.90;;;;;;5073325;28;20051;-47
2023/09/25 03:34:23;;;;;;;4.22;2.92;;;12.10;84.90;;;;;;5073412;28;20039;-46
2023/09/25 03:36:51;;;;;;;6.88;3.15;;;12.20;85.10;;;;;;5059813;28;20052;-48
2023/09/25 03:39:19;;;;;;;4.90;2.83;;;12.10;84.90;;;;;;5053103;28;20061;-50
2023/09/25 03:41:46;;;;;;;4.93;3.00;;;12.10;85.00;;;;;;5052653;28;20032;-48
2023/09/25 03:44:13;;;;;;;3.20;2.35;;;12.20;85.00;;;;;;5054598;28;20071;-50
2023/09/25 03:46:41;;;;;;;6.55;3.08;;;12.10;85.10;;;;;;5053144;28;20438;-46
2023/09/25 03:49:11;;;;;;;4.70;2.72;;;12.20;85.40;;;;;;5052978;28;20025;-46
2023/09/25 03:51:38;;;;;;;3.80;2.67;;;12.10;85.10;;;;;;5044237;28;20489;-47
2023/09/25 03:54:06;;;;;;;8.27;2.92;;;12.10;85.10;;;;;;5052757;28;20024;-49
2023/09/25 03:56:37;;;;;;;5.50;2.95;;;12.20;85.20;;;;;;5052618;28;20037;-49
2023/09/25 03:59:05;;;;;;;6.13;3.33;;;12.10;85.20;;;;;;5064472;28;20036;-49
2023/09/25 04:01:32;;;;;;;5.45;2.95;;;12.10;85.30;;;;;;5072366;28;20032;-48
2023/09/25 04:03:58;;;;;;;3.90;2.90;;;12.10;85.30;;;;;;5062891;28;20398;-50
2023/09/25 04:06:27;;;;;;;4.47;2.90;;;12.10;85.40;;;;;;5057752;28;20024;-50
2023/09/25 04:08:56;;;;;;;5.55;3.00;;;12.10;85.30;;;;;;5065969;28;20029;-51
2023/09/25 04:11:24;;;;;;;4.60;2.88;;;12.10;85.30;;;;;;5072502;28;20409;-51
2023/09/25 04:13:52;;;;;;;4.78;2.85;;;12.10;85.20;;;;;;5072821;28;20031;-48
2023/09/25 04:16:22;;;;;;;4.13;2.67;;;12.10;85.30;;;;;;5063228;28;20041;-48
2023/09/25 04:18:50;;;;;;;7.25;3.45;;;12.10;85.20;;;;;;5052621;28;20029;-51
2023/09/25 04:21:21;;;;;;;5.85;2.95;;;12.10;85.20;;;;;;5052250;28;20029;-51
2023/09/25 04:23:49;;;;;;;3.95;2.90;;;12.10;85.10;;;;;;5052186;28;20031;-49
2023/09/25 04:26:18;;;;;;;4.90;2.90;;;12.10;85.10;;;;;;5059829;28;20045;-49
2023/09/25 04:28:52;;;;;;;3.60;2.70;;;12.10;85.10;;;;;;5057054;28;20044;-49
2023/09/25 04:31:17;;;;;;;4.60;3.60;;;12.20;84.90;;;;;;5072330;28;20044;-48
2023/09/25 04:33:44;;;;;;;4.35;3.15;;;12.10;84.90;;;;;;5053155;28;20098;-49
2023/09/25 04:36:18;;;;;;;4.05;2.78;;;12.20;84.80;;;;;;5034071;28;20036;-48
2023/09/25 04:38:47;;;;;;;5.05;3.03;;;12.20;84.80;;;;;;5052164;28;20037;-52
2023/09/25 04:41:14;;;;;;;6.57;3.30;;;12.20;84.50;;;;;;5032959;28;20080;-53
2023/09/25 04:43:41;;;;;;;6.55;2.97;;;12.20;84.40;;;;;;5050724;28;20032;-53
2023/09/25 04:46:10;;;;;;;5.38;3.33;;;12.20;84.60;;;;;;5051285;28;20045;-50
2023/09/25 04:48:36;;;;;;;6.25;2.97;;;12.20;84.50;;;;;;5032615;28;20100;-49
2023/09/25 04:51:03;;;;;;;4.40;3.17;;;12.20;84.50;;;;;;5031375;28;20108;-48
2023/09/25 04:53:29;;;;;;;4.60;3.42;;;12.20;84.60;;;;;;5041905;28;20470;-51
2023/09/25 04:55:55;;;;;;;4.88;3.22;;;12.20;84.60;;;;;;5041494;28;20116;-49
2023/09/25 04:58:22;;;;;;;4.80;3.45;;;12.20;84.70;;;;;;5018825;28;20116;-49
2023/09/25 05:00:49;;;;;;;5.20;3.58;;;12.20;84.70;;;;;;5049578;28;20090;-51
2023/09/25 05:03:16;;;;;;;3.40;2.65;;;12.20;84.70;;;;;;5055418;28;20369;-51
2023/09/25 05:05:44;;;;;;;4.32;2.72;;;12.20;84.70;;;;;;5033926;28;20092;-52
2023/09/25 05:08:12;;;;;;;6.72;3.63;;;12.10;84.80;;;;;;5035892;28;20525;-51
2023/09/25 05:10:42;;;;;;;6.18;3.10;;;12.20;84.60;;;;;;5043185;28;20037;-48
2023/09/25 05:13:09;;;;;;;4.53;2.90;;;12.20;84.80;;;;;;5035795;28;20032;-46
2023/09/25 05:15:36;;;;;;;4.93;3.08;;;12.10;84.80;;;;;;5049950;28;20056;-48
2023/09/25 05:18:03;;;;;;;6.68;3.42;;;12.20;84.80;;;;;;5055464;28;20021;-48
2023/09/25 05:20:29;;;;;;;6.03;3.38;;;12.20;84.80;;;;;;5055567;28;20051;-49
2023/09/25 05:22:56;;;;;;;4.88;3.45;;;12.20;84.80;;;;;;5053465;28;20327;-51
2023/09/25 05:25:29;;;;;;;3.22;2.47;;;12.20;84.80;;;;;;5054940;28;20056;-49
2023/09/25 05:28:02;;;;;;;4.55;2.75;;;12.20;84.90;;;;;;5055150;28;20040;-47
2023/09/25 05:30:32;;;;;;;5.97;3.50;;;12.20;84.90;;;;;;5053570;28;20056;-50
2023/09/25 05:32:58;;;;;;;3.67;2.83;;;12.20;84.90;;;;;;5035401;28;20061;-48
2023/09/25 05:35:26;;;;;;;5.20;2.63;;;12.20;84.90;;;;;;5035286;28;20120;-47
2023/09/25 05:37:54;;;;;;;4.72;3.15;;;12.20;85.00;;;;;;5035716;28;20026;-49
2023/09/25 05:40:21;;;;;;;5.07;3.42;;;12.20;84.90;;;;;;5054901;28;20048;-49
2023/09/25 05:42:49;;;;;;;4.60;2.95;;;12.20;84.90;;;;;;5057705;28;20078;-46
2023/09/25 05:45:22;;;;;;;3.85;2.47;;;12.30;84.90;;;;;;5054026;28;20057;-48
2023/09/25 05:47:48;;;;;;;7.60;3.35;;;12.30;84.90;;;;;;5037914;28;20378;-51
2023/09/25 05:50:18;;;;;;;5.55;2.80;;;12.30;84.80;;;;;;5055891;28;20036;-47
2023/09/25 05:52:48;;;;;;;5.60;3.50;;;12.30;84.90;;;;;;5047947;28;20123;-48
2023/09/25 05:55:15;;;;;;;;;;;12.40;85.00;;;;;;5069544;28;20033;-46
2023/09/25 05:57:42;;;;;;;4.47;3.00;;;12.30;85.00;;;;;;5075266;28;19908;-51
2023/09/25 06:00:18;;;;;;;3.95;2.72;;;12.40;85.00;;;;;;5068535;28;20393;-48
2023/09/25 06:02:53;;;;;;;6.45;3.92;;;12.40;85.00;;;;;;5055017;28;20111;-46
2023/09/25 06:05:22;;;;;;;3.80;2.72;;;12.40;85.00;;;;;;5062114;28;20039;-48
2023/09/25 06:07:50;;;;;;;6.20;3.45;;;12.40;85.00;;;;;;5074299;28;20016;-48
2023/09/25 06:10:18;;;;;;;4.80;2.92;;;12.40;84.90;;;;;;5061616;28;20041;-46
2023/09/25 06:12:47;;;;;;;4.10;2.85;;;12.50;84.90;;;;;;5047605;28;20413;-47
2023/09/25 06:15:18;;;;;;;3.25;2.38;;;12.50;84.70;;;;;;5073494;28;20532;-51
2023/09/25 06:17:57;;;;;;;4.38;2.72;;;12.50;84.70;;;;;;5057193;28;20035;-47
2023/09/25 06:20:30;;;;;;;4.93;3.03;;;12.60;84.50;;;;;;5074457;28;20028;-48
2023/09/25 06:22:55;;;;;;;4.97;2.78;;;12.60;84.50;;;;;;5048398;28;20120;-48
2023/09/25 06:25:24;;;;;;;6.72;3.08;;;12.60;84.30;;;;;;5058163;28;20099;-48
2023/09/25 06:27:52;;;;;;;4.40;2.72;;;12.70;84.20;;;;;;5068249;28;20085;-50
2023/09/25 06:30:19;;;;;;;3.83;2.70;;;12.70;84.40;;;;;;5056353;28;20033;-48
2023/09/25 06:32:46;;;;;;;4.40;2.70;;;12.70;84.00;;;;;;5071579;28;20354;-48
2023/09/25 06:35:13;;;;;;;3.60;2.58;;;12.80;83.80;;;;;;5054023;28;20420;-47
2023/09/25 06:37:41;;;;;;;5.38;2.22;;;12.90;83.90;;;;;;5058729;28;20059;-47
2023/09/25 06:40:15;;;;;;;4.78;2.85;;;12.90;83.70;;;;;;5048652;28;20052;-47
2023/09/25 06:42:46;;;;;;;5.22;3.30;;;12.90;83.50;;;;;;5032735;28;20021;-51
2023/09/25 06:45:15;;;;;;;5.32;2.92;;;13.00;83.30;;;;;;5034652;28;20363;-47
2023/09/25 06:47:43;;;;;;;6.28;2.88;;;13.00;83.20;;;;;;5035916;28;20109;-47
2023/09/25 06:50:11;;;;;;;4.50;2.60;;;13.10;83.20;;;;;;5034326;28;20021;-48
2023/09/25 06:52:40;;;;;;;4.05;2.55;;;13.10;83.10;;;;;;5015689;28;20037;-51
2023/09/25 06:55:11;;;;;;;4.70;2.55;;;13.20;83.00;;;;;;5036393;28;20035;-47
2023/09/25 06:57:38;;;;;;;8.32;2.78;;;13.20;82.80;;;;;;5016973;28;20040;-49
2023/09/25 07:00:10;;;;;;;5.00;2.50;;;13.20;82.60;;;;;;5034176;28;20065;-50
2023/09/25 07:02:38;;;;;;;4.25;2.38;;;13.30;82.40;;;;;;5033803;28;20025;-46
2023/09/25 07:05:05;;;;;;;5.93;2.70;;;13.40;82.30;;;;;;5045066;28;20096;-50
2023/09/25 07:07:32;;;;;;;5.53;2.55;;;13.40;82.20;;;;;;5054065;28;20056;-49
2023/09/25 07:10:01;;;;;;;4.50;2.60;;;13.40;82.10;;;;;;5058154;28;20033;-49
2023/09/25 07:12:30;;;;;;;3.90;2.55;;;13.50;82.00;;;;;;5033584;28;20033;-50
2023/09/25 07:14:58;;;;;;;5.53;2.53;;;13.60;81.70;;;;;;4999831;28;20132;-46
2023/09/25 07:17:27;;;;;;;5.95;3.00;;;13.60;81.70;;;;;;5050380;28;20033;-49
2023/09/25 07:19:56;;;;;;;4.20;2.60;;;13.70;81.50;;;;;;5046433;28;20041;-46
2023/09/25 07:22:27;;;;;;;4.40;2.42;;;13.80;81.30;;;;;;5033971;28;20057;-47
2023/09/25 07:24:58;;;;;;;4.30;2.35;;;13.80;81.30;;;;;;5027547;28;20029;-46
2023/09/25 07:27:27;;;;;;;3.90;2.40;;;13.90;81.00;;;;;;5044768;28;20732;-47
2023/09/25 07:29:55;;;;;;;3.70;2.65;;;13.90;80.90;;;;;;5033242;28;20036;-47
2023/09/25 07:32:22;;;;;;;3.97;2.35;;;13.90;81.10;;;;;;5048364;28;20044;-48
2023/09/25 07:34:52;;;;;;;2.92;2.13;;;14.00;80.80;;;;;;5053373;28;20100;-50
2023/09/25 07:37:21;;;;;;;9.07;2.72;;;14.10;80.80;;;;;;5031188;28;20030;-47
2023/09/25 07:39:52;;;;;;;3.15;1.90;;;14.20;80.40;;;;;;5038241;28;20064;-48
2023/09/25 07:42:21;;;;;;;5.60;2.45;;;14.30;80.10;;;;;;5052402;28;20025;-46
2023/09/25 07:44:48;;;;;;;5.63;2.72;;;14.40;80.10;;;;;;5053577;28;20028;-46
2023/09/25 07:47:19;;;;;;;5.85;2.30;;;14.60;79.80;;;;;;5053010;28;20086;-47
2023/09/25 07:49:46;;;;;;;3.65;2.10;;;14.70;79.70;;;;;;5053304;28;20021;-47
2023/09/25 07:52:19;;;;;;;4.60;2.20;;;14.90;79.40;;;;;;5056669;28;20327;-47
2023/09/25 07:54:49;;;;;;;3.15;2.13;;;14.90;78.60;;;;;;5062817;28;20509;-51
2023/09/25 07:57:16;;;;;;;4.13;2.63;;;15.00;78.20;;;;;;5052095;28;20024;-47
2023/09/25 07:59:45;;;;;;;4.45;2.45;;;15.10;78.10;;;;;;5018555;28;20029;-49
2023/09/25 08:02:20;;;;;;;5.93;3.15;;;15.20;77.70;;;;;;5063034;28;20067;-49
2023/09/25 08:04:55;;;;;;;3.10;1.73;;;15.30;77.80;;;;;;5072310;28;20038;-47
2023/09/25 08:07:23;;;;;;;5.85;2.30;;;15.30;77.50;;;;;;5044339;28;20116;-48
2023/09/25 08:09:55;;;;;;;4.05;2.03;;;15.40;77.60;;;;;;5069423;28;20076;-49
2023/09/25 08:12:21;;;;;;;3.83;2.03;;;15.40;77.40;;;;;;5068394;28;20020;-47
2023/09/25 08:14:47;;;;;;;3.35;1.73;;;15.50;76.70;;;;;;5052220;28;20056;-47
2023/09/25 08:17:19;;;;;;;4.47;2.22;;;15.60;76.80;;;;;;5042478;28;20036;-50
2023/09/25 08:19:51;;;;;;;3.00;1.90;;;15.60;76.40;;;;;;5071623;28;20016;-47
2023/09/25 08:22:20;;;;;;;5.35;2.00;;;15.80;76.70;;;;;;5054983;28;20037;-46
2023/09/25 08:24:50;;;;;;;4.25;2.58;;;15.90;76.10;;;;;;5072446;28;20033;-49
2023/09/25 08:27:21;;;;;;;3.63;1.67;;;16.00;76.60;;;;;;5065104;28;20029;-47
2023/09/25 08:29:51;;;;;;;4.15;2.38;;;16.10;75.80;;;;;;5051499;28;20021;-47
2023/09/25 08:32:16;;;;;;;3.72;1.95;;;16.30;74.40;;;;;;5061096;28;20025;-48
2023/09/25 08:34:46;;;;;;;3.92;1.50;;;16.50;74.60;;;;;;5059226;28;20421;-48
2023/09/25 08:37:18;;;;;;;3.47;1.52;;;16.60;73.60;;;;;;5055515;28;20112;-48
2023/09/25 08:39:45;;;;;;;2.60;1.40;;;16.60;73.20;;;;;;5046549;28;20045;-50
2023/09/25 08:42:13;;;;;;;4.50;1.73;;;16.70;73.50;;;;;;5059809;28;20024;-49
2023/09/25 08:44:40;;;;;;;3.53;1.70;;;16.90;73.30;;;;;;5074356;28;20016;-47
2023/09/25 08:47:08;;;;;;;3.13;1.75;;;16.90;72.40;;;;;;5076401;28;20063;-47
2023/09/25 08:49:42;;;;;;;4.85;2.45;;;16.90;72.10;;;;;;5074785;28;20086;-48
2023/09/25 08:52:10;;;;;;;3.53;1.92;;;17.10;72.90;;;;;;5058903;28;20028;-47
2023/09/25 08:54:36;;;;;;;2.83;1.63;;;17.30;71.40;;;;;;5075841;28;20040;-52
2023/09/25 08:57:05;;;;;;;3.55;1.60;;;17.30;71.60;;;;;;5073044;28;20024;-47
2023/09/25 08:59:38;;;;;;;4.60;1.60;;;17.30;70.60;;;;;;5022127;28;20040;-46
2023/09/25 09:02:15;;;;;;;2.80;1.58;;;17.30;69.50;;;;;;5039259;28;20106;-51
2023/09/25 09:04:45;;;;;;;2.92;1.60;;;17.20;71.00;;;;;;5056142;28;20120;-47
2023/09/25 09:07:15;;;;;;;5.03;1.55;;;17.40;71.10;;;;;;5058813;28;20056;-48
2023/09/25 09:09:46;;;;;;;4.03;2.08;;;17.40;70.70;;;;;;5058613;28;20095;-49
2023/09/25 09:12:13;;;;;;;4.05;1.50;;;17.40;69.90;;;;;;5057268;28;20036;-47
2023/09/25 09:14:43;;;;;;;4.97;1.83;;;17.40;70.30;;;;;;5072456;28;20036;-47
2023/09/25 09:17:11;;;;;;;3.80;2.03;;;17.40;70.30;;;;;;5058435;28;20036;-47
2023/09/25 09:19:47;;;;;;;5.55;1.80;;;17.50;69.70;;;;;;5088862;28;20131;-48
2023/09/25 09:22:16;;;;;;;4.07;1.70;;;17.40;70.20;;;;;;5055718;28;20025;-46
2023/09/25 09:24:44;;;;;;;2.40;1.33;;;17.40;70.20;;;;;;5042906;28;20029;-49
2023/09/25 09:27:14;;;;;;;2.92;1.55;;;17.50;70.60;;;;;;5057329;28;20482;-51
2023/09/25 09:29:52;;;;;;;3.30;1.50;;;17.50;71.30;;;;;;5075741;28;20020;-50
2023/09/25 09:32:18;;;;;;;4.82;1.65;;;17.40;70.80;;;;;;5075324;28;20059;-52
2023/09/25 09:34:44;;;;;;;3.65;1.35;;;17.40;70.30;;;;;;5074829;28;20060;-48
2023/09/25 09:37:13;;;;;;;6.32;2.38;;;17.40;70.40;;;;;;5075614;28;20033;-47
2023/09/25 09:39:45;;;;;;;4.17;2.10;;;17.40;69.40;;;;;;5071198;28;20393;-49
2023/09/25 09:42:12;;;;;;;3.65;2.13;;;17.30;69.70;;;;;;5022220;28;20052;-47
2023/09/25 09:44:39;;;;;;;3.92;1.90;;;17.30;70.10;;;;;;5029444;28;20037;-48
2023/09/25 09:47:08;;;;;;;3.47;1.80;;;17.30;70.90;;;;;;5035157;28;20053;-47
2023/09/25 09:49:39;;;;;;;5.22;1.95;;;17.20;70.70;;;;;;5012447;28;20121;-47
2023/09/25 09:52:19;;;;;;;2.97;1.70;;;17.20;70.30;;;;;;5036727;28;20308;-47
2023/09/25 09:54:52;;;;;;;3.22;1.80;;;17.20;70.90;;;;;;5055296;28;20170;-47
2023/09/25 09:57:30;;;;;;;6.30;2.92;;;17.30;71.10;;;;;;5054270;28;20657;-52
2023/09/25 10:00:05;;;;;;;4.43;2.47;;;17.30;71.70;;;;;;5046755;28;20045;-51
2023/09/25 10:02:33;;;;;;;3.38;1.90;;;17.30;72.20;;;;;;5035286;28;20017;-47
2023/09/25 10:05:00;;;;;;;5.97;2.08;;;17.40;72.20;;;;;;5051872;28;20025;-49
2023/09/25 10:07:27;;;;;;;4.35;2.15;;;17.40;71.90;;;;;;5037244;28;20112;-49
2023/09/25 10:10:07;;;;;;;4.15;2.10;;;17.40;71.20;;;;;;5054720;28;20029;-48
2023/09/25 10:12:50;;;;;;;3.05;1.60;;;17.50;72.20;;;;;;5037446;28;20339;-47
2023/09/25 10:15:34;;;;;;;5.90;1.67;;;17.60;70.90;;;;;;5053567;28;20037;-52
2023/09/25 10:18:00;;;;;;;4.35;2.45;;;17.80;71.50;;;;;;5035248;28;20037;-53
2023/09/25 10:20:46;;;;;;;3.55;1.85;;;17.80;70.40;;;;;;5048316;28;20036;-50
2023/09/25 10:23:27;;;;;;;4.70;2.28;;;17.90;71.60;;;;;;5052321;28;20028;-47
2023/09/25 10:26:11;;;;;;;;;;;17.90;70.90;;;;;;5032712;28;20047;-47
2023/09/25 10:29:08;;;;;;;2.90;1.50;;;17.90;70.60;;;;;;5054584;28;19916;-51
2023/09/25 10:31:35;;;;;;;6.35;2.28;;;18.00;70.60;;;;;;5044664;28;20427;-48
2023/09/25 10:34:07;;;;;;;5.38;1.80;;;18.10;70.70;;;;;;5037438;28;20056;-48
2023/09/25 10:36:59;;;;;;;3.28;1.25;;;18.00;71.20;;;;;;5054528;28;20029;-47
2023/09/25 10:39:39;;;;;;;5.00;1.77;;;18.10;71.00;;;;;;5049020;28;20037;-50
2023/09/25 10:42:09;;;;;;;6.00;2.78;;;18.10;71.00;;;;;;5036478;28;20032;-50
2023/09/25 10:44:39;;;;;;;3.35;1.83;;;18.00;71.10;;;;;;5062260;28;20031;-47
2023/09/25 10:47:07;;;;;;;3.10;1.67;;;18.00;70.50;;;;;;5073948;28;20025;-48
2023/09/25 10:49:37;;;;;;;3.60;2.15;;;17.90;70.50;;;;;;5073279;28;20021;-49
2023/09/25 10:52:13;;;;;;;5.40;2.60;;;17.90;71.10;;;;;;5072659;28;20075;-50
2023/09/25 10:54:39;;;;;;;3.83;2.20;;;17.90;70.70;;;;;;5061131;28;20060;-47
2023/09/25 10:57:16;;;;;;;5.00;2.13;;;18.10;71.40;;;;;;5053868;28;20482;-48
2023/09/25 10:59:44;;;;;;;5.38;2.05;;;18.10;69.70;;;;;;5054270;28;20041;-50
2023/09/25 11:02:15;;;;;;;3.15;1.98;;;18.20;71.00;;;;;;5054808;28;20064;-48
2023/09/25 11:04:43;;;;;;;3.90;1.52;;;18.40;70.50;;;;;;5052358;28;20040;-49
2023/09/25 11:07:12;;;;;;;5.13;1.70;;;18.40;69.80;;;;;;5054449;28;20056;-48
2023/09/25 11:09:39;;;;;;;3.15;1.85;;;18.40;69.60;;;;;;5053650;28;20039;-50
2023/09/25 11:12:07;;;;;;;4.13;1.95;;;18.40;69.60;;;;;;5035959;28;20119;-49
2023/09/25 11:14:37;;;;;;;4.85;2.30;;;18.40;70.10;;;;;;5067502;28;20033;-51
2023/09/25 11:17:03;;;;;;;;;;;18.40;69.30;;;;;;5073762;28;20033;-50
2023/09/25 11:19:30;;;;;;;4.57;1.92;;;18.50;69.40;;;;;;5071688;28;19916;-53
2023/09/25 11:22:03;;;;;;;4.82;1.77;;;18.60;69.20;;;;;;5072545;28;20040;-50
2023/09/25 11:24:31;;;;;;;4.22;2.00;;;18.80;68.10;;;;;;5079090;28;20025;-49
2023/09/25 11:26:58;;;;;;;3.08;1.65;;;18.90;68.50;;;;;;5073042;28;20365;-52
2023/09/25 11:29:33;;;;;;;3.50;1.50;;;19.00;68.30;;;;;;5062167;28;20033;-49
2023/09/25 11:32:00;;;;;;;6.80;1.80;;;19.00;68.10;;;;;;5036249;28;20021;-50
2023/09/25 11:34:29;;;;;;;7.28;1.83;;;19.20;67.70;;;;;;5054262;28;20661;-50
2023/09/25 11:36:59;;;;;;;6.32;2.03;;;19.20;68.20;;;;;;5066288;28;20029;-53
2023/09/25 11:39:25;;;;;;;3.60;1.50;;;19.20;68.10;;;;;;5052944;28;20029;-51
2023/09/25 11:41:54;;;;;;;5.03;2.05;;;19.40;67.30;;;;;;5035871;28;20171;-53
2023/09/25 11:44:20;;;;;;;4.22;1.85;;;19.40;66.40;;;;;;5059599;28;20023;-52
2023/09/25 11:46:52;;;;;;;5.90;2.15;;;19.40;66.00;;;;;;5073003;28;20055;-53
2023/09/25 11:49:19;;;;;;;5.80;2.13;;;19.20;65.50;;;;;;5053955;28;20020;-52
2023/09/25 11:51:56;;;;;;;5.38;2.33;;;19.20;65.70;;;;;;5073087;28;20064;-50
2023/09/25 11:54:27;;;;;;;6.65;2.15;;;19.10;65.80;;;;;;5054687;28;20037;-47
2023/09/25 11:56:57;;;;;;;3.25;1.65;;;19.20;66.50;;;;;;5072815;28;20420;-49
2023/09/25 11:59:24;;;;;;;3.83;2.15;;;19.20;67.80;;;;;;5073256;28;20032;-49
2023/09/25 12:01:52;;;;;;;3.22;1.63;;;19.30;67.20;;;;;;5065242;28;20029;-48
2023/09/25 12:04:21;;;;;;;3.85;2.00;;;19.40;67.00;;;;;;5057235;28;20443;-52
2023/09/25 12:06:59;;;;;;;3.75;1.70;;;19.40;66.20;;;;;;5072544;28;20107;-49
2023/09/25 12:09:27;;;;;;;3.10;1.85;;;19.50;65.80;;;;;;5072199;28;20028;-50
2023/09/25 12:11:55;;;;;;;4.03;1.60;;;19.40;66.20;;;;;;5072815;28;20100;-54
2023/09/25 12:14:25;;;;;;;4.47;1.77;;;19.40;66.40;;;;;;5072980;28;20108;-51
2023/09/25 12:16:52;;;;;;;5.47;2.13;;;19.40;65.50;;;;;;5046859;28;20036;-51
2023/09/25 12:19:19;;;;;;;4.72;1.77;;;19.40;66.60;;;;;;5054461;28;20119;-51
2023/09/25 12:21:47;;;;;;;4.35;1.70;;;19.40;66.10;;;;;;5072459;28;20369;-50
2023/09/25 12:24:18;;;;;;;3.05;1.65;;;19.30;66.50;;;;;;5067789;28;20062;-51
2023/09/25 12:26:45;;;;;;;4.05;1.60;;;19.30;67.60;;;;;;5072438;28;20025;-49
2023/09/25 12:29:13;;;;;;;4.07;1.90;;;19.30;67.30;;;;;;5056361;28;20121;-49
2023/09/25 12:31:39;;;;;;;3.65;1.80;;;19.40;66.80;;;;;;5052589;28;20521;-50
2023/09/25 12:34:06;;;;;;;4.45;1.95;;;19.40;66.70;;;;;;5053122;28;20104;-50
2023/09/25 12:36:33;;;;;;;5.85;2.00;;;19.50;67.50;;;;;;5052387;28;20044;-51
2023/09/25 12:39:02;;;;;;;3.15;1.30;;;19.60;67.30;;;;;;5052839;28;20025;-49
2023/09/25 12:41:31;;;;;;;;;;;19.70;67.60;;;;;;5033473;28;20056;-54
2023/09/25 12:43:58;;;;;;;3.45;1.70;;;19.80;66.60;;;;;;5044183;28;19970;-50
2023/09/25 12:46:24;;;;;;;5.38;1.70;;;19.60;66.00;;;;;;5052245;28;20598;-49
2023/09/25 12:48:55;;;;;;;6.22;2.00;;;19.70;66.50;;;;;;5047419;28;20025;-52
2023/09/25 12:51:25;;;;;;;4.03;1.77;;;19.70;66.10;;;;;;5032950;28;20033;-50
2023/09/25 12:53:54;;;;;;;6.57;1.70;;;19.50;67.00;;;;;;5032599;28;20083;-52
2023/09/25 12:56:23;;;;;;;3.97;1.77;;;19.50;66.90;;;;;;5045624;28;20060;-52
2023/09/25 12:58:51;;;;;;;4.80;1.98;;;19.50;66.80;;;;;;5052260;28;20024;-51